sensor_id;sensor_type;location;lat;lon;timestamp;P1;durP1;ratioP1;P2;durP2;ratioP2
13816;SDS011;6979;52.116;5.286;2023-04-28T00:01:37;5.73;;;5.33;;
13816;SDS011;6979;52.116;5.286;2023-04-28T00:04:04;4.97;;;4.63;;
13816;SDS011;6979;52.116;5.286;2023-04-28T00:06:31;4.67;;;4.27;;
13816;SDS011;6979;52.116;5.286;2023-04-28T00:08:57;5.20;;;4.77;;
13816;SDS011;6979;52.116;5.286;2023-04-28T00:11:24;4.57;;;4.20;;
13816;SDS011;6979;52.116;5.286;2023-04-28T00:13:51;4.97;;;4.57;;
13816;SDS011;6979;52.116;5.286;2023-04-28T00:16:19;6.13;;;5.33;;
13816;SDS011;6979;52.116;5.286;2023-04-28T00:18:47;4.97;;;4.50;;
13816;SDS011;6979;52.116;5.286;2023-04-28T00:21:15;5.67;;;4.77;;
13816;SDS011;6979;52.116;5.286;2023-04-28T00:23:42;5.17;;;4.77;;
13816;SDS011;6979;52.116;5.286;2023-04-28T00:26:08;5.00;;;4.60;;
13816;SDS011;6979;52.116;5.286;2023-04-28T00:28:38;4.13;;;3.90;;
13816;SDS011;6979;52.116;5.286;2023-04-28T00:31:09;5.23;;;4.83;;
13816;SDS011;6979;52.116;5.286;2023-04-28T00:33:36;4.43;;;4.13;;
13816;SDS011;6979;52.116;5.286;2023-04-28T00:36:05;4.23;;;3.93;;
13816;SDS011;6979;52.116;5.286;2023-04-28T00:38:32;4.87;;;4.47;;
13816;SDS011;6979;52.116;5.286;2023-04-28T00:40:59;4.90;;;4.50;;
13816;SDS011;6979;52.116;5.286;2023-04-28T00:43:26;5.23;;;4.83;;
13816;SDS011;6979;52.116;5.286;2023-04-28T00:45:53;4.93;;;4.37;;
13816;SDS011;6979;52.116;5.286;2023-04-28T00:48:20;4.30;;;3.93;;
13816;SDS011;6979;52.116;5.286;2023-04-28T00:50:47;4.40;;;4.03;;
13816;SDS011;6979;52.116;5.286;2023-04-28T00:53:16;4.50;;;4.20;;
13816;SDS011;6979;52.116;5.286;2023-04-28T00:55:43;4.53;;;4.13;;
13816;SDS011;6979;52.116;5.286;2023-04-28T00:58:13;4.17;;;3.80;;
13816;SDS011;6979;52.116;5.286;2023-04-28T01:00:40;4.40;;;4.10;;
13816;SDS011;6979;52.116;5.286;2023-04-28T01:03:07;4.50;;;4.20;;
13816;SDS011;6979;52.116;5.286;2023-04-28T01:05:34;4.93;;;4.40;;
13816;SDS011;6979;52.116;5.286;2023-04-28T01:08:03;5.10;;;4.67;;
13816;SDS011;6979;52.116;5.286;2023-04-28T01:10:32;5.07;;;4.67;;
13816;SDS011;6979;52.116;5.286;2023-04-28T01:13:06;4.17;;;3.80;;
13816;SDS011;6979;52.116;5.286;2023-04-28T01:15:33;5.60;;;5.10;;
13816;SDS011;6979;52.116;5.286;2023-04-28T01:18:00;4.50;;;4.17;;
13816;SDS011;6979;52.116;5.286;2023-04-28T01:20:27;4.93;;;4.37;;
13816;SDS011;6979;52.116;5.286;2023-04-28T01:22:54;4.80;;;3.80;;
13816;SDS011;6979;52.116;5.286;2023-04-28T01:25:23;4.47;;;4.17;;
13816;SDS011;6979;52.116;5.286;2023-04-28T01:27:50;5.10;;;4.60;;
13816;SDS011;6979;52.116;5.286;2023-04-28T01:30:18;4.47;;;4.17;;
13816;SDS011;6979;52.116;5.286;2023-04-28T01:32:45;4.47;;;4.17;;
13816;SDS011;6979;52.116;5.286;2023-04-28T01:35:12;4.23;;;3.83;;
13816;SDS011;6979;52.116;5.286;2023-04-28T01:37:39;4.53;;;4.20;;
13816;SDS011;6979;52.116;5.286;2023-04-28T01:40:06;4.57;;;4.20;;
13816;SDS011;6979;52.116;5.286;2023-04-28T01:42:36;4.63;;;4.13;;
13816;SDS011;6979;52.116;5.286;2023-04-28T01:45:03;5.23;;;4.83;;
13816;SDS011;6979;52.116;5.286;2023-04-28T01:47:30;4.67;;;4.33;;
13816;SDS011;6979;52.116;5.286;2023-04-28T01:49:58;4.67;;;4.27;;
13816;SDS011;6979;52.116;5.286;2023-04-28T01:52:24;4.37;;;4.00;;
13816;SDS011;6979;52.116;5.286;2023-04-28T01:54:52;4.30;;;4.00;;
13816;SDS011;6979;52.116;5.286;2023-04-28T01:57:20;4.43;;;4.03;;
13816;SDS011;6979;52.116;5.286;2023-04-28T01:59:48;4.10;;;3.73;;
13816;SDS011;6979;52.116;5.286;2023-04-28T02:02:15;4.53;;;4.13;;
13816;SDS011;6979;52.116;5.286;2023-04-28T02:04:43;4.40;;;4.00;;
13816;SDS011;6979;52.116;5.286;2023-04-28T02:07:09;3.83;;;3.53;;
13816;SDS011;6979;52.116;5.286;2023-04-28T02:09:38;4.60;;;4.20;;
13816;SDS011;6979;52.116;5.286;2023-04-28T02:12:05;4.57;;;4.27;;
13816;SDS011;6979;52.116;5.286;2023-04-28T02:14:32;4.67;;;4.23;;
13816;SDS011;6979;52.116;5.286;2023-04-28T02:17:00;4.20;;;3.90;;
13816;SDS011;6979;52.116;5.286;2023-04-28T02:19:29;4.53;;;4.13;;
13816;SDS011;6979;52.116;5.286;2023-04-28T02:21:56;5.30;;;4.10;;
13816;SDS011;6979;52.116;5.286;2023-04-28T02:24:23;4.47;;;3.90;;
13816;SDS011;6979;52.116;5.286;2023-04-28T02:26:49;3.87;;;3.67;;
13816;SDS011;6979;52.116;5.286;2023-04-28T02:29:16;5.20;;;4.00;;
13816;SDS011;6979;52.116;5.286;2023-04-28T02:31:43;4.63;;;4.03;;
13816;SDS011;6979;52.116;5.286;2023-04-28T02:34:12;4.53;;;4.23;;
13816;SDS011;6979;52.116;5.286;2023-04-28T02:36:40;6.57;;;3.90;;
13816;SDS011;6979;52.116;5.286;2023-04-28T02:39:07;4.73;;;4.13;;
13816;SDS011;6979;52.116;5.286;2023-04-28T02:41:34;4.47;;;4.07;;
13816;SDS011;6979;52.116;5.286;2023-04-28T02:44:01;4.80;;;4.40;;
13816;SDS011;6979;52.116;5.286;2023-04-28T02:46:28;4.47;;;4.07;;
13816;SDS011;6979;52.116;5.286;2023-04-28T02:48:55;3.80;;;3.50;;
13816;SDS011;6979;52.116;5.286;2023-04-28T02:51:24;5.33;;;4.23;;
13816;SDS011;6979;52.116;5.286;2023-04-28T02:53:51;4.23;;;3.93;;
13816;SDS011;6979;52.116;5.286;2023-04-28T02:56:17;4.17;;;3.97;;
13816;SDS011;6979;52.116;5.286;2023-04-28T02:58:45;4.07;;;3.77;;
13816;SDS011;6979;52.116;5.286;2023-04-28T03:01:12;4.40;;;4.10;;
13816;SDS011;6979;52.116;5.286;2023-04-28T03:03:39;4.77;;;4.27;;
13816;SDS011;6979;52.116;5.286;2023-04-28T03:06:06;4.10;;;3.80;;
13816;SDS011;6979;52.116;5.286;2023-04-28T03:08:34;4.30;;;4.00;;
13816;SDS011;6979;52.116;5.286;2023-04-28T03:11:02;3.83;;;3.53;;
13816;SDS011;6979;52.116;5.286;2023-04-28T03:13:29;5.20;;;4.07;;
13816;SDS011;6979;52.116;5.286;2023-04-28T03:15:56;3.90;;;3.70;;
13816;SDS011;6979;52.116;5.286;2023-04-28T03:18:23;4.23;;;3.93;;
13816;SDS011;6979;52.116;5.286;2023-04-28T03:20:50;4.07;;;3.77;;
13816;SDS011;6979;52.116;5.286;2023-04-28T03:23:18;3.80;;;3.50;;
13816;SDS011;6979;52.116;5.286;2023-04-28T03:25:46;4.17;;;3.87;;
13816;SDS011;6979;52.116;5.286;2023-04-28T03:28:15;4.47;;;4.10;;
13816;SDS011;6979;52.116;5.286;2023-04-28T03:30:41;3.93;;;3.63;;
13816;SDS011;6979;52.116;5.286;2023-04-28T03:33:08;4.23;;;3.93;;
13816;SDS011;6979;52.116;5.286;2023-04-28T03:35:35;4.30;;;4.00;;
13816;SDS011;6979;52.116;5.286;2023-04-28T03:38:02;4.40;;;4.00;;
13816;SDS011;6979;52.116;5.286;2023-04-28T03:40:29;4.47;;;3.70;;
13816;SDS011;6979;52.116;5.286;2023-04-28T03:43:12;3.50;;;3.30;;
13816;SDS011;6979;52.116;5.286;2023-04-28T03:45:56;3.90;;;3.60;;
13816;SDS011;6979;52.116;5.286;2023-04-28T03:48:24;4.50;;;4.10;;
13816;SDS011;6979;52.116;5.286;2023-04-28T03:50:51;4.47;;;4.07;;
13816;SDS011;6979;52.116;5.286;2023-04-28T03:53:23;3.70;;;3.40;;
13816;SDS011;6979;52.116;5.286;2023-04-28T03:55:51;4.63;;;4.33;;
13816;SDS011;6979;52.116;5.286;2023-04-28T03:58:19;4.13;;;3.73;;
13816;SDS011;6979;52.116;5.286;2023-04-28T04:00:46;4.33;;;4.03;;
13816;SDS011;6979;52.116;5.286;2023-04-28T04:03:13;4.27;;;3.97;;
13816;SDS011;6979;52.116;5.286;2023-04-28T04:05:42;4.13;;;3.83;;
13816;SDS011;6979;52.116;5.286;2023-04-28T04:08:09;4.33;;;4.03;;
13816;SDS011;6979;52.116;5.286;2023-04-28T04:10:36;5.90;;;4.17;;
13816;SDS011;6979;52.116;5.286;2023-04-28T04:13:03;4.50;;;4.03;;
13816;SDS011;6979;52.116;5.286;2023-04-28T04:15:32;3.70;;;3.40;;
13816;SDS011;6979;52.116;5.286;2023-04-28T04:18:02;4.97;;;4.57;;
13816;SDS011;6979;52.116;5.286;2023-04-28T04:20:40;4.57;;;4.27;;
13816;SDS011;6979;52.116;5.286;2023-04-28T04:23:07;5.07;;;4.67;;
13816;SDS011;6979;52.116;5.286;2023-04-28T04:25:34;4.33;;;3.93;;
13816;SDS011;6979;52.116;5.286;2023-04-28T04:28:02;5.03;;;4.63;;
13816;SDS011;6979;52.116;5.286;2023-04-28T04:30:29;5.40;;;4.53;;
13816;SDS011;6979;52.116;5.286;2023-04-28T04:32:57;4.13;;;3.83;;
13816;SDS011;6979;52.116;5.286;2023-04-28T04:35:24;4.67;;;4.23;;
13816;SDS011;6979;52.116;5.286;2023-04-28T04:37:51;4.93;;;4.40;;
13816;SDS011;6979;52.116;5.286;2023-04-28T04:40:18;4.60;;;4.30;;
13816;SDS011;6979;52.116;5.286;2023-04-28T04:42:48;5.10;;;4.30;;
13816;SDS011;6979;52.116;5.286;2023-04-28T04:45:17;4.53;;;4.23;;
13816;SDS011;6979;52.116;5.286;2023-04-28T04:47:46;4.77;;;4.37;;
13816;SDS011;6979;52.116;5.286;2023-04-28T04:50:13;4.90;;;4.40;;
13816;SDS011;6979;52.116;5.286;2023-04-28T04:52:40;5.03;;;4.47;;
13816;SDS011;6979;52.116;5.286;2023-04-28T04:55:07;6.87;;;5.03;;
13816;SDS011;6979;52.116;5.286;2023-04-28T04:57:37;4.67;;;4.37;;
13816;SDS011;6979;52.116;5.286;2023-04-28T05:00:10;5.17;;;4.77;;
13816;SDS011;6979;52.116;5.286;2023-04-28T05:02:37;4.80;;;4.40;;
13816;SDS011;6979;52.116;5.286;2023-04-28T05:05:06;5.33;;;4.77;;
13816;SDS011;6979;52.116;5.286;2023-04-28T05:07:34;5.47;;;5.00;;
13816;SDS011;6979;52.116;5.286;2023-04-28T05:10:01;4.70;;;4.37;;
13816;SDS011;6979;52.116;5.286;2023-04-28T05:12:29;5.47;;;4.97;;
13816;SDS011;6979;52.116;5.286;2023-04-28T05:14:56;5.50;;;5.00;;
13816;SDS011;6979;52.116;5.286;2023-04-28T05:17:22;5.67;;;5.17;;
13816;SDS011;6979;52.116;5.286;2023-04-28T05:19:50;5.13;;;4.73;;
13816;SDS011;6979;52.116;5.286;2023-04-28T05:22:18;5.60;;;5.20;;
13816;SDS011;6979;52.116;5.286;2023-04-28T05:24:45;5.77;;;5.27;;
13816;SDS011;6979;52.116;5.286;2023-04-28T05:27:12;5.30;;;4.77;;
13816;SDS011;6979;52.116;5.286;2023-04-28T05:29:39;4.57;;;4.27;;
13816;SDS011;6979;52.116;5.286;2023-04-28T05:32:06;5.90;;;5.40;;
13816;SDS011;6979;52.116;5.286;2023-04-28T05:34:33;6.17;;;5.60;;
13816;SDS011;6979;52.116;5.286;2023-04-28T05:37:00;5.67;;;5.27;;
13816;SDS011;6979;52.116;5.286;2023-04-28T05:39:30;5.40;;;4.90;;
13816;SDS011;6979;52.116;5.286;2023-04-28T05:42:03;5.33;;;4.80;;
13816;SDS011;6979;52.116;5.286;2023-04-28T05:44:30;8.53;;;5.40;;
13816;SDS011;6979;52.116;5.286;2023-04-28T05:46:58;6.47;;;5.97;;
13816;SDS011;6979;52.116;5.286;2023-04-28T05:49:26;5.53;;;5.13;;
13816;SDS011;6979;52.116;5.286;2023-04-28T05:51:52;5.87;;;5.40;;
13816;SDS011;6979;52.116;5.286;2023-04-28T05:54:19;6.03;;;5.53;;
13816;SDS011;6979;52.116;5.286;2023-04-28T05:56:52;5.93;;;5.50;;
13816;SDS011;6979;52.116;5.286;2023-04-28T05:59:19;6.50;;;6.00;;
13816;SDS011;6979;52.116;5.286;2023-04-28T06:01:46;6.67;;;6.07;;
13816;SDS011;6979;52.116;5.286;2023-04-28T06:04:14;6.60;;;6.10;;
13816;SDS011;6979;52.116;5.286;2023-04-28T06:06:41;6.77;;;6.13;;
13816;SDS011;6979;52.116;5.286;2023-04-28T06:09:08;6.33;;;5.73;;
13816;SDS011;6979;52.116;5.286;2023-04-28T06:11:35;7.17;;;6.57;;
13816;SDS011;6979;52.116;5.286;2023-04-28T06:14:05;6.67;;;6.17;;
13816;SDS011;6979;52.116;5.286;2023-04-28T06:16:32;7.17;;;6.57;;
13816;SDS011;6979;52.116;5.286;2023-04-28T06:19:00;6.30;;;5.80;;
13816;SDS011;6979;52.116;5.286;2023-04-28T06:21:27;6.13;;;5.63;;
13816;SDS011;6979;52.116;5.286;2023-04-28T06:23:57;6.77;;;6.17;;
13816;SDS011;6979;52.116;5.286;2023-04-28T06:26:24;7.70;;;7.00;;
13816;SDS011;6979;52.116;5.286;2023-04-28T06:28:51;6.80;;;6.10;;
13816;SDS011;6979;52.116;5.286;2023-04-28T06:31:20;7.80;;;7.20;;
13816;SDS011;6979;52.116;5.286;2023-04-28T06:33:48;7.50;;;6.80;;
13816;SDS011;6979;52.116;5.286;2023-04-28T06:36:14;7.40;;;6.70;;
13816;SDS011;6979;52.116;5.286;2023-04-28T06:38:42;8.23;;;7.43;;
13816;SDS011;6979;52.116;5.286;2023-04-28T06:41:09;8.47;;;7.77;;
13816;SDS011;6979;52.116;5.286;2023-04-28T06:43:37;8.20;;;7.40;;
13816;SDS011;6979;52.116;5.286;2023-04-28T06:46:07;7.87;;;7.20;;
13816;SDS011;6979;52.116;5.286;2023-04-28T06:48:36;7.93;;;6.70;;
13816;SDS011;6979;52.116;5.286;2023-04-28T06:51:04;8.07;;;7.37;;
13816;SDS011;6979;52.116;5.286;2023-04-28T06:53:33;8.27;;;7.53;;
13816;SDS011;6979;52.116;5.286;2023-04-28T06:56:00;8.63;;;7.87;;
13816;SDS011;6979;52.116;5.286;2023-04-28T06:58:27;9.37;;;7.90;;
13816;SDS011;6979;52.116;5.286;2023-04-28T07:00:54;8.30;;;7.60;;
13816;SDS011;6979;52.116;5.286;2023-04-28T07:03:21;9.23;;;8.33;;
13816;SDS011;6979;52.116;5.286;2023-04-28T07:05:49;8.93;;;8.13;;
13816;SDS011;6979;52.116;5.286;2023-04-28T07:08:18;8.80;;;8.10;;
13816;SDS011;6979;52.116;5.286;2023-04-28T07:10:45;9.87;;;8.93;;
13816;SDS011;6979;52.116;5.286;2023-04-28T07:13:13;9.43;;;8.70;;
13816;SDS011;6979;52.116;5.286;2023-04-28T07:15:40;9.33;;;8.53;;
13816;SDS011;6979;52.116;5.286;2023-04-28T07:18:07;9.20;;;8.43;;
13816;SDS011;6979;52.116;5.286;2023-04-28T07:20:34;7.97;;;7.37;;
13816;SDS011;6979;52.116;5.286;2023-04-28T07:23:02;9.63;;;8.73;;
13816;SDS011;6979;52.116;5.286;2023-04-28T07:25:29;9.73;;;8.93;;
13816;SDS011;6979;52.116;5.286;2023-04-28T07:27:57;10.17;;;9.13;;
13816;SDS011;6979;52.116;5.286;2023-04-28T07:30:24;9.93;;;9.13;;
13816;SDS011;6979;52.116;5.286;2023-04-28T07:32:51;10.00;;;9.13;;
13816;SDS011;6979;52.116;5.286;2023-04-28T07:35:17;10.03;;;8.90;;
13816;SDS011;6979;52.116;5.286;2023-04-28T07:37:44;10.77;;;9.90;;
13816;SDS011;6979;52.116;5.286;2023-04-28T07:40:13;10.50;;;9.50;;
13816;SDS011;6979;52.116;5.286;2023-04-28T07:42:40;10.37;;;9.47;;
13816;SDS011;6979;52.116;5.286;2023-04-28T07:45:13;10.23;;;9.43;;
13816;SDS011;6979;52.116;5.286;2023-04-28T07:47:41;10.03;;;9.20;;
13816;SDS011;6979;52.116;5.286;2023-04-28T07:50:08;11.00;;;10.10;;
13816;SDS011;6979;52.116;5.286;2023-04-28T07:52:36;10.63;;;9.63;;
13816;SDS011;6979;52.116;5.286;2023-04-28T07:55:03;10.07;;;9.17;;
13816;SDS011;6979;52.116;5.286;2023-04-28T07:57:32;9.97;;;9.17;;
13816;SDS011;6979;52.116;5.286;2023-04-28T07:59:59;10.47;;;9.57;;
13816;SDS011;6979;52.116;5.286;2023-04-28T08:02:26;10.63;;;9.73;;
13816;SDS011;6979;52.116;5.286;2023-04-28T08:04:53;10.70;;;9.70;;
13816;SDS011;6979;52.116;5.286;2023-04-28T08:07:20;10.90;;;9.90;;
13816;SDS011;6979;52.116;5.286;2023-04-28T08:09:46;9.17;;;8.43;;
13816;SDS011;6979;52.116;5.286;2023-04-28T08:12:14;10.33;;;9.43;;
13816;SDS011;6979;52.116;5.286;2023-04-28T08:14:42;10.87;;;9.93;;
13816;SDS011;6979;52.116;5.286;2023-04-28T08:17:12;10.80;;;9.90;;
13816;SDS011;6979;52.116;5.286;2023-04-28T08:19:39;11.90;;;10.93;;
13816;SDS011;6979;52.116;5.286;2023-04-28T08:22:06;11.30;;;9.77;;
13816;SDS011;6979;52.116;5.286;2023-04-28T08:24:33;13.13;;;11.83;;
13816;SDS011;6979;52.116;5.286;2023-04-28T08:27:00;11.13;;;10.23;;
13816;SDS011;6979;52.116;5.286;2023-04-28T08:29:28;12.60;;;11.50;;
13816;SDS011;6979;52.116;5.286;2023-04-28T08:31:58;14.07;;;12.80;;
13816;SDS011;6979;52.116;5.286;2023-04-28T08:34:34;14.23;;;12.90;;
13816;SDS011;6979;52.116;5.286;2023-04-28T08:37:01;13.67;;;12.20;;
13816;SDS011;6979;52.116;5.286;2023-04-28T08:39:28;14.53;;;13.33;;
13816;SDS011;6979;52.116;5.286;2023-04-28T08:41:55;12.90;;;11.83;;
13816;SDS011;6979;52.116;5.286;2023-04-28T08:44:22;13.47;;;12.27;;
13816;SDS011;6979;52.116;5.286;2023-04-28T08:46:49;14.27;;;13.13;;
13816;SDS011;6979;52.116;5.286;2023-04-28T08:49:25;15.00;;;13.67;;
13816;SDS011;6979;52.116;5.286;2023-04-28T08:51:59;15.80;;;14.40;;
13816;SDS011;6979;52.116;5.286;2023-04-28T08:54:27;16.43;;;14.83;;
13816;SDS011;6979;52.116;5.286;2023-04-28T08:56:56;14.97;;;13.67;;
13816;SDS011;6979;52.116;5.286;2023-04-28T08:59:23;14.27;;;13.07;;
13816;SDS011;6979;52.116;5.286;2023-04-28T09:01:50;14.80;;;13.70;;
13816;SDS011;6979;52.116;5.286;2023-04-28T09:04:18;14.63;;;13.43;;
13816;SDS011;6979;52.116;5.286;2023-04-28T09:06:46;15.27;;;14.17;;
13816;SDS011;6979;52.116;5.286;2023-04-28T09:09:17;14.57;;;13.47;;
13816;SDS011;6979;52.116;5.286;2023-04-28T09:11:51;12.60;;;11.60;;
13816;SDS011;6979;52.116;5.286;2023-04-28T09:14:19;15.97;;;14.67;;
13816;SDS011;6979;52.116;5.286;2023-04-28T09:16:46;14.43;;;13.13;;
13816;SDS011;6979;52.116;5.286;2023-04-28T09:19:14;14.37;;;13.17;;
13816;SDS011;6979;52.116;5.286;2023-04-28T09:21:46;14.93;;;13.67;;
13816;SDS011;6979;52.116;5.286;2023-04-28T09:24:24;14.97;;;13.77;;
13816;SDS011;6979;52.116;5.286;2023-04-28T09:26:52;15.43;;;13.90;;
13816;SDS011;6979;52.116;5.286;2023-04-28T09:29:19;14.50;;;13.37;;
13816;SDS011;6979;52.116;5.286;2023-04-28T09:31:46;14.73;;;13.53;;
13816;SDS011;6979;52.116;5.286;2023-04-28T09:34:13;15.40;;;14.20;;
13816;SDS011;6979;52.116;5.286;2023-04-28T09:36:40;15.73;;;14.40;;
13816;SDS011;6979;52.116;5.286;2023-04-28T09:39:10;16.87;;;15.57;;
13816;SDS011;6979;52.116;5.286;2023-04-28T09:41:38;14.40;;;13.37;;
13816;SDS011;6979;52.116;5.286;2023-04-28T09:44:10;15.23;;;14.03;;
13816;SDS011;6979;52.116;5.286;2023-04-28T09:46:41;15.20;;;13.90;;
13816;SDS011;6979;52.116;5.286;2023-04-28T09:49:09;13.50;;;12.50;;
13816;SDS011;6979;52.116;5.286;2023-04-28T09:51:36;14.27;;;13.07;;
13816;SDS011;6979;52.116;5.286;2023-04-28T09:54:04;13.60;;;12.50;;
13816;SDS011;6979;52.116;5.286;2023-04-28T09:56:33;13.60;;;12.50;;
13816;SDS011;6979;52.116;5.286;2023-04-28T09:59:02;12.40;;;11.50;;
13816;SDS011;6979;52.116;5.286;2023-04-28T10:01:31;14.13;;;13.00;;
13816;SDS011;6979;52.116;5.286;2023-04-28T10:04:00;12.53;;;11.63;;
13816;SDS011;6979;52.116;5.286;2023-04-28T10:06:30;11.47;;;10.57;;
13816;SDS011;6979;52.116;5.286;2023-04-28T10:09:00;12.37;;;11.47;;
13816;SDS011;6979;52.116;5.286;2023-04-28T10:11:28;11.40;;;10.53;;
13816;SDS011;6979;52.116;5.286;2023-04-28T10:13:57;12.77;;;11.67;;
13816;SDS011;6979;52.116;5.286;2023-04-28T10:16:29;12.20;;;11.27;;
13816;SDS011;6979;52.116;5.286;2023-04-28T10:18:57;12.10;;;11.20;;
13816;SDS011;6979;52.116;5.286;2023-04-28T10:21:44;11.23;;;10.43;;
13816;SDS011;6979;52.116;5.286;2023-04-28T10:24:21;12.50;;;11.60;;
13816;SDS011;6979;52.116;5.286;2023-04-28T10:27:02;12.93;;;12.03;;
13816;SDS011;6979;52.116;5.286;2023-04-28T10:29:36;12.37;;;11.37;;
13816;SDS011;6979;52.116;5.286;2023-04-28T10:32:14;12.90;;;11.90;;
13816;SDS011;6979;52.116;5.286;2023-04-28T10:34:43;13.03;;;11.93;;
13816;SDS011;6979;52.116;5.286;2023-04-28T10:37:12;12.70;;;11.70;;
13816;SDS011;6979;52.116;5.286;2023-04-28T10:42:58;12.53;;;11.43;;
13816;SDS011;6979;52.116;5.286;2023-04-28T10:48:52;13.17;;;12.17;;
13816;SDS011;6979;52.116;5.286;2023-04-28T10:51:29;13.23;;;12.13;;
13816;SDS011;6979;52.116;5.286;2023-04-28T10:54:08;12.97;;;12.07;;
13816;SDS011;6979;52.116;5.286;2023-04-28T10:56:36;16.63;;;15.23;;
13816;SDS011;6979;52.116;5.286;2023-04-28T10:59:23;15.40;;;14.10;;
13816;SDS011;6979;52.116;5.286;2023-04-28T11:01:53;14.20;;;13.00;;
13816;SDS011;6979;52.116;5.286;2023-04-28T11:04:20;13.13;;;12.13;;
13816;SDS011;6979;52.116;5.286;2023-04-28T11:09:47;13.17;;;12.17;;
13816;SDS011;6979;52.116;5.286;2023-04-28T11:12:16;14.60;;;13.37;;
13816;SDS011;6979;52.116;5.286;2023-04-28T11:14:43;15.03;;;13.80;;
13816;SDS011;6979;52.116;5.286;2023-04-28T11:17:12;13.40;;;12.20;;
13816;SDS011;6979;52.116;5.286;2023-04-28T11:19:41;13.07;;;12.07;;
13816;SDS011;6979;52.116;5.286;2023-04-28T11:22:13;13.93;;;12.73;;
13816;SDS011;6979;52.116;5.286;2023-04-28T11:24:53;13.67;;;12.57;;
13816;SDS011;6979;52.116;5.286;2023-04-28T11:27:22;13.13;;;12.03;;
13816;SDS011;6979;52.116;5.286;2023-04-28T11:29:49;12.83;;;11.67;;
13816;SDS011;6979;52.116;5.286;2023-04-28T11:32:24;13.73;;;12.43;;
13816;SDS011;6979;52.116;5.286;2023-04-28T11:34:52;12.47;;;11.47;;
13816;SDS011;6979;52.116;5.286;2023-04-28T11:37:20;11.90;;;10.87;;
13816;SDS011;6979;52.116;5.286;2023-04-28T11:39:47;10.90;;;10.00;;
13816;SDS011;6979;52.116;5.286;2023-04-28T11:42:14;10.77;;;9.87;;
13816;SDS011;6979;52.116;5.286;2023-04-28T11:44:41;11.53;;;10.53;;
13816;SDS011;6979;52.116;5.286;2023-04-28T11:47:15;11.20;;;10.20;;
13816;SDS011;6979;52.116;5.286;2023-04-28T11:49:56;9.13;;;8.43;;
13816;SDS011;6979;52.116;5.286;2023-04-28T11:52:23;10.57;;;9.57;;
13816;SDS011;6979;52.116;5.286;2023-04-28T11:54:55;8.67;;;7.77;;
13816;SDS011;6979;52.116;5.286;2023-04-28T11:57:44;8.57;;;7.80;;
13816;SDS011;6979;52.116;5.286;2023-04-28T12:00:12;8.83;;;8.03;;
13816;SDS011;6979;52.116;5.286;2023-04-28T12:02:44;9.43;;;7.30;;
13816;SDS011;6979;52.116;5.286;2023-04-28T12:05:11;6.10;;;5.50;;
13816;SDS011;6979;52.116;5.286;2023-04-28T12:07:39;7.47;;;6.77;;
13816;SDS011;6979;52.116;5.286;2023-04-28T12:10:11;5.97;;;5.50;;
13816;SDS011;6979;52.116;5.286;2023-04-28T12:12:42;4.87;;;4.47;;
13816;SDS011;6979;52.116;5.286;2023-04-28T12:15:11;4.60;;;4.20;;
13816;SDS011;6979;52.116;5.286;2023-04-28T12:17:39;4.30;;;3.90;;
13816;SDS011;6979;52.116;5.286;2023-04-28T12:20:09;3.53;;;3.27;;
13816;SDS011;6979;52.116;5.286;2023-04-28T12:22:43;2.80;;;2.60;;
13816;SDS011;6979;52.116;5.286;2023-04-28T12:25:12;2.80;;;2.60;;
13816;SDS011;6979;52.116;5.286;2023-04-28T12:27:57;2.63;;;2.40;;
13816;SDS011;6979;52.116;5.286;2023-04-28T12:30:26;2.57;;;2.37;;
13816;SDS011;6979;52.116;5.286;2023-04-28T12:32:54;2.77;;;2.50;;
13816;SDS011;6979;52.116;5.286;2023-04-28T12:35:26;3.10;;;2.90;;
13816;SDS011;6979;52.116;5.286;2023-04-28T12:37:55;2.67;;;2.50;;
13816;SDS011;6979;52.116;5.286;2023-04-28T12:40:23;3.13;;;2.93;;
13816;SDS011;6979;52.116;5.286;2023-04-28T12:42:50;3.90;;;3.70;;
13816;SDS011;6979;52.116;5.286;2023-04-28T12:45:17;4.40;;;4.10;;
13816;SDS011;6979;52.116;5.286;2023-04-28T12:47:44;5.13;;;4.83;;
13816;SDS011;6979;52.116;5.286;2023-04-28T12:50:11;5.43;;;5.13;;
13816;SDS011;6979;52.116;5.286;2023-04-28T12:52:40;4.93;;;4.63;;
13816;SDS011;6979;52.116;5.286;2023-04-28T12:55:07;5.37;;;5.07;;
13816;SDS011;6979;52.116;5.286;2023-04-28T12:57:35;4.80;;;4.50;;
13816;SDS011;6979;52.116;5.286;2023-04-28T13:00:02;4.97;;;4.67;;
13816;SDS011;6979;52.116;5.286;2023-04-28T13:02:30;5.43;;;5.13;;
13816;SDS011;6979;52.116;5.286;2023-04-28T13:04:57;6.10;;;5.70;;
13816;SDS011;6979;52.116;5.286;2023-04-28T13:07:24;4.63;;;4.43;;
13816;SDS011;6979;52.116;5.286;2023-04-28T13:09:53;4.37;;;4.17;;
13816;SDS011;6979;52.116;5.286;2023-04-28T13:12:21;5.83;;;5.43;;
13816;SDS011;6979;52.116;5.286;2023-04-28T13:14:48;6.07;;;5.67;;
13816;SDS011;6979;52.116;5.286;2023-04-28T13:17:16;4.97;;;4.73;;
13816;SDS011;6979;52.116;5.286;2023-04-28T13:19:43;5.07;;;4.77;;
13816;SDS011;6979;52.116;5.286;2023-04-28T13:22:11;3.83;;;3.63;;
13816;SDS011;6979;52.116;5.286;2023-04-28T13:24:41;4.63;;;4.43;;
13816;SDS011;6979;52.116;5.286;2023-04-28T13:27:09;4.53;;;4.33;;
13816;SDS011;6979;52.116;5.286;2023-04-28T13:29:37;4.60;;;4.40;;
13816;SDS011;6979;52.116;5.286;2023-04-28T13:32:04;5.00;;;4.80;;
13816;SDS011;6979;52.116;5.286;2023-04-28T13:34:32;5.03;;;4.77;;
13816;SDS011;6979;52.116;5.286;2023-04-28T13:37:02;4.47;;;4.27;;
13816;SDS011;6979;52.116;5.286;2023-04-28T13:39:29;5.00;;;4.80;;
13816;SDS011;6979;52.116;5.286;2023-04-28T13:41:56;5.20;;;5.00;;
13816;SDS011;6979;52.116;5.286;2023-04-28T13:44:25;4.20;;;4.00;;
13816;SDS011;6979;52.116;5.286;2023-04-28T13:46:52;4.10;;;3.90;;
13816;SDS011;6979;52.116;5.286;2023-04-28T13:49:24;4.33;;;4.00;;
13816;SDS011;6979;52.116;5.286;2023-04-28T13:51:51;2.83;;;2.73;;
13816;SDS011;6979;52.116;5.286;2023-04-28T13:54:18;3.00;;;2.90;;
13816;SDS011;6979;52.116;5.286;2023-04-28T13:56:46;3.17;;;3.07;;
13816;SDS011;6979;52.116;5.286;2023-04-28T13:59:13;2.57;;;2.47;;
13816;SDS011;6979;52.116;5.286;2023-04-28T14:01:41;2.40;;;2.30;;
13816;SDS011;6979;52.116;5.286;2023-04-28T14:04:08;2.80;;;2.70;;
13816;SDS011;6979;52.116;5.286;2023-04-28T14:06:35;2.77;;;2.67;;
13816;SDS011;6979;52.116;5.286;2023-04-28T14:09:02;3.00;;;2.90;;
13816;SDS011;6979;52.116;5.286;2023-04-28T14:11:30;4.17;;;3.93;;
13816;SDS011;6979;52.116;5.286;2023-04-28T14:13:57;4.63;;;4.37;;
13816;SDS011;6979;52.116;5.286;2023-04-28T14:16:24;4.00;;;3.80;;
13816;SDS011;6979;52.116;5.286;2023-04-28T14:18:53;4.90;;;4.60;;
13816;SDS011;6979;52.116;5.286;2023-04-28T14:21:20;5.23;;;4.83;;
13816;SDS011;6979;52.116;5.286;2023-04-28T14:23:49;4.63;;;4.33;;
13816;SDS011;6979;52.116;5.286;2023-04-28T14:26:16;4.63;;;4.33;;
13816;SDS011;6979;52.116;5.286;2023-04-28T14:28:44;5.40;;;5.00;;
13816;SDS011;6979;52.116;5.286;2023-04-28T14:31:12;5.23;;;4.93;;
13816;SDS011;6979;52.116;5.286;2023-04-28T14:33:39;5.60;;;5.20;;
13816;SDS011;6979;52.116;5.286;2023-04-28T14:36:07;7.47;;;6.77;;
13816;SDS011;6979;52.116;5.286;2023-04-28T14:38:34;7.57;;;6.97;;
13816;SDS011;6979;52.116;5.286;2023-04-28T14:41:01;6.93;;;6.33;;
13816;SDS011;6979;52.116;5.286;2023-04-28T14:43:28;6.73;;;6.13;;
13816;SDS011;6979;52.116;5.286;2023-04-28T14:45:55;8.17;;;7.47;;
13816;SDS011;6979;52.116;5.286;2023-04-28T14:48:24;8.07;;;7.40;;
13816;SDS011;6979;52.116;5.286;2023-04-28T14:50:51;9.07;;;8.27;;
13816;SDS011;6979;52.116;5.286;2023-04-28T14:53:19;8.40;;;7.60;;
13816;SDS011;6979;52.116;5.286;2023-04-28T14:55:47;9.37;;;8.47;;
13816;SDS011;6979;52.116;5.286;2023-04-28T14:58:14;9.40;;;8.50;;
13816;SDS011;6979;52.116;5.286;2023-04-28T15:00:41;8.97;;;8.07;;
13816;SDS011;6979;52.116;5.286;2023-04-28T15:03:09;9.90;;;9.00;;
13816;SDS011;6979;52.116;5.286;2023-04-28T15:05:37;10.23;;;9.30;;
13816;SDS011;6979;52.116;5.286;2023-04-28T15:08:04;9.70;;;8.73;;
13816;SDS011;6979;52.116;5.286;2023-04-28T15:10:36;9.43;;;8.53;;
13816;SDS011;6979;52.116;5.286;2023-04-28T15:13:05;10.00;;;8.93;;